sensor_id;sensor_type;location;lat;lon;timestamp;pressure;altitude;pressure_sealevel;temperature;humidity
14232;BME280;7200;52.194;9.900;2022-12-18T00:01:01;101239.19;;;-4.90;100.00
14232;BME280;7200;52.194;9.900;2022-12-18T00:03:32;101246.16;;;-4.87;100.00
14232;BME280;7200;52.194;9.900;2022-12-18T00:05:57;101241.97;;;-4.85;100.00
14232;BME280;7200;52.194;9.900;2022-12-18T00:08:23;101237.63;;;-4.86;100.00
14232;BME280;7200;52.194;9.900;2022-12-18T00:10:48;101247.97;;;-4.85;100.00
14232;BME280;7200;52.194;9.900;2022-12-18T00:13:13;101269.72;;;-4.77;100.00
14232;BME280;7200;52.194;9.900;2022-12-18T00:15:39;101273.31;;;-4.73;100.00
14232;BME280;7200;52.194;9.900;2022-12-18T00:18:04;101280.31;;;-4.69;100.00
14232;BME280;7200;52.194;9.900;2022-12-18T00:20:30;101289.88;;;-4.66;100.00
14232;BME280;7200;52.194;9.900;2022-12-18T00:22:55;101292.56;;;-4.63;100.00
14232;BME280;7200;52.194;9.900;2022-12-18T00:25:21;101295.19;;;-4.62;100.00
14232;BME280;7200;52.194;9.900;2022-12-18T00:27:46;101304.06;;;-4.55;100.00
14232;BME280;7200;52.194;9.900;2022-12-18T00:30:12;101302.34;;;-4.55;100.00
14232;BME280;7200;52.194;9.900;2022-12-18T00:32:37;101295.41;;;-4.57;100.00
14232;BME280;7200;52.194;9.900;2022-12-18T00:35:03;101276.19;;;-4.65;100.00
14232;BME280;7200;52.194;9.900;2022-12-18T00:37:29;101269.16;;;-4.70;100.00
14232;BME280;7200;52.194;9.900;2022-12-18T00:39:54;101227.31;;;-4.86;100.00
14232;BME280;7200;52.194;9.900;2022-12-18T00:42:20;101220.16;;;-4.94;100.00
14232;BME280;7200;52.194;9.900;2022-12-18T00:45:03;101207.72;;;-5.05;100.00
14232;BME280;7200;52.194;9.900;2022-12-18T00:47:29;101223.09;;;-5.07;100.00
14232;BME280;7200;52.194;9.900;2022-12-18T00:49:54;101300.19;;;-4.66;100.00
14232;BME280;7200;52.194;9.900;2022-12-18T00:52:19;101302.28;;;-4.56;100.00
14232;BME280;7200;52.194;9.900;2022-12-18T00:54:45;101279.75;;;-4.62;100.00
14232;BME280;7200;52.194;9.900;2022-12-18T00:57:10;101253.56;;;-4.74;100.00
14232;BME280;7200;52.194;9.900;2022-12-18T00:59:35;101246.53;;;-4.78;100.00
14232;BME280;7200;52.194;9.900;2022-12-18T01:02:00;101216.22;;;-4.85;100.00
14232;BME280;7200;52.194;9.900;2022-12-18T01:04:26;101223.00;;;-4.87;100.00
14232;BME280;7200;52.194;9.900;2022-12-18T01:06:51;101215.16;;;-4.91;100.00
14232;BME280;7200;52.194;9.900;2022-12-18T01:09:16;101212.50;;;-4.92;100.00
14232;BME280;7200;52.194;9.900;2022-12-18T01:11:42;101191.63;;;-5.00;100.00
14232;BME280;7200;52.194;9.900;2022-12-18T01:14:07;101203.56;;;-5.02;100.00
14232;BME280;7200;52.194;9.900;2022-12-18T01:16:32;101215.63;;;-5.01;100.00
14232;BME280;7200;52.194;9.900;2022-12-18T01:18:58;101220.72;;;-5.02;100.00
14232;BME280;7200;52.194;9.900;2022-12-18T01:21:23;101220.50;;;-5.07;100.00
14232;BME280;7200;52.194;9.900;2022-12-18T01:23:53;101224.78;;;-5.07;100.00
14232;BME280;7200;52.194;9.900;2022-12-18T01:26:19;101210.69;;;-5.17;100.00
14232;BME280;7200;52.194;9.900;2022-12-18T01:28:44;101218.97;;;-5.24;100.00
14232;BME280;7200;52.194;9.900;2022-12-18T01:31:17;101230.09;;;-5.25;100.00
14232;BME280;7200;52.194;9.900;2022-12-18T01:33:44;101240.38;;;-5.25;100.00
14232;BME280;7200;52.194;9.900;2022-12-18T01:36:22;101272.41;;;-5.17;100.00
14232;BME280;7200;52.194;9.900;2022-12-18T01:38:48;101275.88;;;-5.17;100.00
14232;BME280;7200;52.194;9.900;2022-12-18T01:41:15;101286.22;;;-5.15;100.00
14232;BME280;7200;52.194;9.900;2022-12-18T01:43:42;101286.16;;;-5.17;100.00
14232;BME280;7200;52.194;9.900;2022-12-18T01:46:08;101298.31;;;-5.13;100.00
14232;BME280;7200;52.194;9.900;2022-12-18T01:48:33;101305.16;;;-5.13;100.00
14232;BME280;7200;52.194;9.900;2022-12-18T01:50:59;101327.78;;;-5.06;100.00
14232;BME280;7200;52.194;9.900;2022-12-18T01:53:25;101339.06;;;-5.02;100.00
14232;BME280;7200;52.194;9.900;2022-12-18T01:55:52;101329.50;;;-5.05;100.00
14232;BME280;7200;52.194;9.900;2022-12-18T01:58:20;101318.28;;;-5.07;100.00
14232;BME280;7200;52.194;9.900;2022-12-18T02:00:48;101320.78;;;-5.09;100.00
14232;BME280;7200;52.194;9.900;2022-12-18T02:03:14;101311.13;;;-5.14;100.00
14232;BME280;7200;52.194;9.900;2022-12-18T02:06:15;101311.88;;;-5.17;100.00
14232;BME280;7200;52.194;9.900;2022-12-18T02:08:57;101300.50;;;-5.22;100.00
14232;BME280;7200;52.194;9.900;2022-12-18T02:11:39;101297.94;;;-5.22;100.00
14232;BME280;7200;52.194;9.900;2022-12-18T02:17:03;101301.19;;;-5.26;100.00
14232;BME280;7200;52.194;9.900;2022-12-18T02:20:08;101296.81;;;-5.29;100.00
14232;BME280;7200;52.194;9.900;2022-12-18T02:27:59;101275.69;;;-5.42;100.00
14232;BME280;7200;52.194;9.900;2022-12-18T02:30:27;101284.19;;;-5.43;100.00
14232;BME280;7200;52.194;9.900;2022-12-18T02:32:55;101292.94;;;-5.40;100.00
14232;BME280;7200;52.194;9.900;2022-12-18T02:35:25;101254.59;;;-5.55;100.00
14232;BME280;7200;52.194;9.900;2022-12-18T02:37:52;101298.94;;;-5.39;100.00
14232;BME280;7200;52.194;9.900;2022-12-18T02:40:19;101265.94;;;-5.50;100.00
14232;BME280;7200;52.194;9.900;2022-12-18T02:42:46;101266.63;;;-5.54;100.00
14232;BME280;7200;52.194;9.900;2022-12-18T02:45:11;101282.09;;;-5.52;100.00
14232;BME280;7200;52.194;9.900;2022-12-18T02:47:39;101283.13;;;-5.49;100.00
14232;BME280;7200;52.194;9.900;2022-12-18T02:50:21;101276.22;;;-5.50;100.00
14232;BME280;7200;52.194;9.900;2022-12-18T02:58:38;101297.81;;;-5.46;100.00
14232;BME280;7200;52.194;9.900;2022-12-18T03:01:23;101315.38;;;-5.36;100.00
14232;BME280;7200;52.194;9.900;2022-12-18T03:03:59;101312.72;;;-5.37;100.00
14232;BME280;7200;52.194;9.900;2022-12-18T03:06:30;101308.34;;;-5.40;100.00
14232;BME280;7200;52.194;9.900;2022-12-18T03:09:00;101315.22;;;-5.39;100.00
14232;BME280;7200;52.194;9.900;2022-12-18T03:11:30;101333.53;;;-5.33;100.00
14232;BME280;7200;52.194;9.900;2022-12-18T03:14:17;101330.00;;;-5.35;100.00
14232;BME280;7200;52.194;9.900;2022-12-18T03:16:46;101347.50;;;-5.26;100.00
14232;BME280;7200;52.194;9.900;2022-12-18T03:19:16;101357.94;;;-5.23;100.00
14232;BME280;7200;52.194;9.900;2022-12-18T03:21:47;101344.19;;;-5.23;100.00
14232;BME280;7200;52.194;9.900;2022-12-18T03:24:15;101332.84;;;-5.29;100.00
14232;BME280;7200;52.194;9.900;2022-12-18T03:26:44;101345.84;;;-5.25;100.00
14232;BME280;7200;52.194;9.900;2022-12-18T03:29:34;101353.81;;;-5.19;100.00
14232;BME280;7200;52.194;9.900;2022-12-18T03:32:27;101352.25;;;-5.16;100.00
14232;BME280;7200;52.194;9.900;2022-12-18T03:34:55;101349.66;;;-5.16;100.00
14232;BME280;7200;52.194;9.900;2022-12-18T03:37:23;101347.81;;;-5.18;100.00
14232;BME280;7200;52.194;9.900;2022-12-18T03:39:49;101347.97;;;-5.15;100.00
14232;BME280;7200;52.194;9.900;2022-12-18T03:42:26;101359.28;;;-5.12;100.00
14232;BME280;7200;52.194;9.900;2022-12-18T03:50:22;101382.38;;;-4.92;100.00
14232;BME280;7200;52.194;9.900;2022-12-18T03:53:00;101374.72;;;-4.91;100.00
14232;BME280;7200;52.194;9.900;2022-12-18T03:55:32;101393.44;;;-4.74;100.00
14232;BME280;7200;52.194;9.900;2022-12-18T03:58:01;101394.50;;;-4.68;100.00
14232;BME280;7200;52.194;9.900;2022-12-18T04:00:28;101382.75;;;-4.62;100.00
14232;BME280;7200;52.194;9.900;2022-12-18T04:02:55;101362.84;;;-4.66;100.00
14232;BME280;7200;52.194;9.900;2022-12-18T04:05:22;101340.25;;;-4.73;100.00
14232;BME280;7200;52.194;9.900;2022-12-18T04:07:49;101334.16;;;-4.75;100.00
14232;BME280;7200;52.194;9.900;2022-12-18T04:10:16;101350.81;;;-4.67;100.00
14232;BME280;7200;52.194;9.900;2022-12-18T04:12:42;101331.66;;;-4.74;100.00
14232;BME280;7200;52.194;9.900;2022-12-18T04:15:09;101321.19;;;-4.78;100.00
14232;BME280;7200;52.194;9.900;2022-12-18T04:17:35;101299.44;;;-4.85;100.00
14232;BME280;7200;52.194;9.900;2022-12-18T04:20:00;101274.97;;;-4.96;100.00
14232;BME280;7200;52.194;9.900;2022-12-18T04:22:25;101259.31;;;-5.02;100.00
14232;BME280;7200;52.194;9.900;2022-12-18T04:24:50;101260.88;;;-5.06;100.00
14232;BME280;7200;52.194;9.900;2022-12-18T04:27:16;101242.63;;;-5.12;100.00
14232;BME280;7200;52.194;9.900;2022-12-18T04:29:41;101238.97;;;-5.17;100.00
14232;BME280;7200;52.194;9.900;2022-12-18T04:32:07;101249.28;;;-5.17;100.00
14232;BME280;7200;52.194;9.900;2022-12-18T04:34:32;101247.44;;;-5.20;100.00
14232;BME280;7200;52.194;9.900;2022-12-18T04:36:57;101258.72;;;-5.16;100.00
14232;BME280;7200;52.194;9.900;2022-12-18T04:39:23;101274.44;;;-5.10;100.00
14232;BME280;7200;52.194;9.900;2022-12-18T04:41:48;101266.50;;;-5.15;100.00
14232;BME280;7200;52.194;9.900;2022-12-18T04:44:13;101246.63;;;-5.19;100.00
14232;BME280;7200;52.194;9.900;2022-12-18T04:46:39;101243.13;;;-5.21;100.00
14232;BME280;7200;52.194;9.900;2022-12-18T04:49:04;101243.19;;;-5.19;100.00
14232;BME280;7200;52.194;9.900;2022-12-18T04:51:30;101247.56;;;-5.17;100.00
14232;BME280;7200;52.194;9.900;2022-12-18T04:53:55;101255.34;;;-5.15;100.00
14232;BME280;7200;52.194;9.900;2022-12-18T04:56:20;101245.69;;;-5.21;100.00
14232;BME280;7200;52.194;9.900;2022-12-18T04:58:46;101250.06;;;-5.18;100.00
14232;BME280;7200;52.194;9.900;2022-12-18T05:01:13;101263.25;;;-5.11;100.00
14232;BME280;7200;52.194;9.900;2022-12-18T05:03:39;101278.25;;;-5.00;100.00
14232;BME280;7200;52.194;9.900;2022-12-18T05:06:05;101300.09;;;-4.91;100.00
14232;BME280;7200;52.194;9.900;2022-12-18T05:08:31;101292.44;;;-4.89;100.00
14232;BME280;7200;52.194;9.900;2022-12-18T05:11:00;101309.28;;;-4.75;100.00
14232;BME280;7200;52.194;9.900;2022-12-18T05:13:27;101291.41;;;-4.72;100.00
14232;BME280;7200;52.194;9.900;2022-12-18T05:15:52;101267.06;;;-4.80;100.00
14232;BME280;7200;52.194;9.900;2022-12-18T05:18:17;101253.94;;;-4.86;100.00
14232;BME280;7200;52.194;9.900;2022-12-18T05:20:43;101245.97;;;-4.92;100.00
14232;BME280;7200;52.194;9.900;2022-12-18T05:23:08;101224.16;;;-5.02;100.00
14232;BME280;7200;52.194;9.900;2022-12-18T05:25:33;101209.34;;;-5.07;100.00
14232;BME280;7200;52.194;9.900;2022-12-18T05:27:58;101210.97;;;-5.10;100.00
14232;BME280;7200;52.194;9.900;2022-12-18T05:30:24;101214.25;;;-5.14;100.00
14232;BME280;7200;52.194;9.900;2022-12-18T05:32:49;101218.47;;;-5.16;100.00
14232;BME280;7200;52.194;9.900;2022-12-18T05:35:14;101225.19;;;-5.19;100.00
14232;BME280;7200;52.194;9.900;2022-12-18T05:37:40;101205.00;;;-5.31;100.00
14232;BME280;7200;52.194;9.900;2022-12-18T05:40:05;101189.84;;;-5.44;100.00
14232;BME280;7200;52.194;9.900;2022-12-18T05:42:31;101194.97;;;-5.46;100.00
14232;BME280;7200;52.194;9.900;2022-12-18T05:44:56;101214.00;;;-5.41;100.00
14232;BME280;7200;52.194;9.900;2022-12-18T05:47:21;101240.09;;;-5.32;100.00
14232;BME280;7200;52.194;9.900;2022-12-18T05:49:47;101275.94;;;-5.15;100.00
14232;BME280;7200;52.194;9.900;2022-12-18T05:52:12;101272.72;;;-5.10;100.00
14232;BME280;7200;52.194;9.900;2022-12-18T05:54:37;101292.84;;;-4.99;100.00
14232;BME280;7200;52.194;9.900;2022-12-18T05:57:02;101280.94;;;-4.97;100.00
14232;BME280;7200;52.194;9.900;2022-12-18T05:59:28;101303.66;;;-4.87;100.00
14232;BME280;7200;52.194;9.900;2022-12-18T06:01:53;101292.50;;;-4.87;100.00
14232;BME280;7200;52.194;9.900;2022-12-18T06:04:18;101309.13;;;-4.79;100.00
14232;BME280;7200;52.194;9.900;2022-12-18T06:06:44;101305.75;;;-4.78;100.00
14232;BME280;7200;52.194;9.900;2022-12-18T06:09:09;101301.53;;;-4.76;100.00
14232;BME280;7200;52.194;9.900;2022-12-18T06:11:36;101279.94;;;-4.80;100.00
14232;BME280;7200;52.194;9.900;2022-12-18T06:14:03;101266.06;;;-4.83;100.00
14232;BME280;7200;52.194;9.900;2022-12-18T06:16:29;101259.97;;;-4.85;100.00
14232;BME280;7200;52.194;9.900;2022-12-18T06:19:01;101250.41;;;-4.88;100.00
14232;BME280;7200;52.194;9.900;2022-12-18T06:21:28;101243.34;;;-4.94;100.00
14232;BME280;7200;52.194;9.900;2022-12-18T06:23:54;101235.50;;;-4.97;100.00
14232;BME280;7200;52.194;9.900;2022-12-18T06:26:19;101225.16;;;-4.98;100.00
14232;BME280;7200;52.194;9.900;2022-12-18T06:28:44;101238.94;;;-4.96;100.00
14232;BME280;7200;52.194;9.900;2022-12-18T06:31:10;101248.75;;;-4.87;100.00
14232;BME280;7200;52.194;9.900;2022-12-18T06:33:37;101258.03;;;-4.91;100.00
14232;BME280;7200;52.194;9.900;2022-12-18T06:36:08;101251.00;;;-4.95;100.00
14232;BME280;7200;52.194;9.900;2022-12-18T06:38:35;101257.09;;;-4.93;100.00
14232;BME280;7200;52.194;9.900;2022-12-18T06:43:34;101239.53;;;-5.03;100.00
14232;BME280;7200;52.194;9.900;2022-12-18T06:46:00;101246.22;;;-5.07;100.00
14232;BME280;7200;52.194;9.900;2022-12-18T06:48:26;101241.72;;;-5.13;100.00
14232;BME280;7200;52.194;9.900;2022-12-18T06:50:51;101261.56;;;-5.10;100.00
14232;BME280;7200;52.194;9.900;2022-12-18T06:53:16;101262.38;;;-5.11;100.00
14232;BME280;7200;52.194;9.900;2022-12-18T06:55:42;101284.09;;;-5.04;100.00
14232;BME280;7200;52.194;9.900;2022-12-18T06:58:07;101305.84;;;-4.96;100.00
14232;BME280;7200;52.194;9.900;2022-12-18T07:00:33;101314.66;;;-4.91;100.00
14232;BME280;7200;52.194;9.900;2022-12-18T07:02:58;101316.31;;;-4.92;100.00
14232;BME280;7200;52.194;9.900;2022-12-18T07:05:23;101333.69;;;-4.87;100.00
14232;BME280;7200;52.194;9.900;2022-12-18T07:07:48;101356.38;;;-4.77;100.00
14232;BME280;7200;52.194;9.900;2022-12-18T07:10:14;101355.63;;;-4.75;100.00
14232;BME280;7200;52.194;9.900;2022-12-18T07:12:39;101367.88;;;-4.69;100.00
14232;BME280;7200;52.194;9.900;2022-12-18T07:15:05;101376.59;;;-4.65;100.00
14232;BME280;7200;52.194;9.900;2022-12-18T07:17:30;101364.41;;;-4.70;100.00
14232;BME280;7200;52.194;9.900;2022-12-18T07:19:56;101349.66;;;-4.74;100.00
14232;BME280;7200;52.194;9.900;2022-12-18T07:22:21;101354.75;;;-4.75;100.00
14232;BME280;7200;52.194;9.900;2022-12-18T07:24:47;101351.44;;;-4.73;100.00
14232;BME280;7200;52.194;9.900;2022-12-18T07:27:15;101360.91;;;-4.72;100.00
14232;BME280;7200;52.194;9.900;2022-12-18T07:29:40;101354.69;;;-4.77;100.00
14232;BME280;7200;52.194;9.900;2022-12-18T07:32:05;101379.81;;;-4.71;100.00
14232;BME280;7200;52.194;9.900;2022-12-18T07:34:32;101392.09;;;-4.64;100.00
14232;BME280;7200;52.194;9.900;2022-12-18T07:36:57;101372.22;;;-4.68;100.00
14232;BME280;7200;52.194;9.900;2022-12-18T07:39:22;101372.97;;;-4.71;100.00
14232;BME280;7200;52.194;9.900;2022-12-18T07:41:48;101373.84;;;-4.70;100.00
14232;BME280;7200;52.194;9.900;2022-12-18T07:44:33;101392.09;;;-4.64;100.00
14232;BME280;7200;52.194;9.900;2022-12-18T07:46:58;101403.41;;;-4.60;100.00
14232;BME280;7200;52.194;9.900;2022-12-18T07:49:24;101427.09;;;-4.48;100.00
14232;BME280;7200;52.194;9.900;2022-12-18T07:51:49;101433.31;;;-4.43;100.00
14232;BME280;7200;52.194;9.900;2022-12-18T07:54:14;101439.53;;;-4.38;100.00
14232;BME280;7200;52.194;9.900;2022-12-18T07:56:40;101461.66;;;-4.22;100.00
14232;BME280;7200;52.194;9.900;2022-12-18T07:59:05;101455.72;;;-4.19;100.00
14232;BME280;7200;52.194;9.900;2022-12-18T08:01:30;101439.44;;;-4.18;100.00
14232;BME280;7200;52.194;9.900;2022-12-18T08:03:57;101449.25;;;-4.09;100.00
14232;BME280;7200;52.194;9.900;2022-12-18T08:06:22;101437.19;;;-4.11;100.00
14232;BME280;7200;52.194;9.900;2022-12-18T08:08:47;101428.56;;;-4.11;100.00
14232;BME280;7200;52.194;9.900;2022-12-18T08:11:12;101435.66;;;-4.05;100.00
14232;BME280;7200;52.194;9.900;2022-12-18T08:13:38;101448.72;;;-4.01;100.00
14232;BME280;7200;52.194;9.900;2022-12-18T08:16:05;101457.56;;;-3.94;100.00
14232;BME280;7200;52.194;9.900;2022-12-18T08:18:32;101460.41;;;-3.88;100.00
14232;BME280;7200;52.194;9.900;2022-12-18T08:21:08;101434.66;;;-3.86;100.00
14232;BME280;7200;52.194;9.900;2022-12-18T08:23:34;101433.22;;;-3.80;100.00
14232;BME280;7200;52.194;9.900;2022-12-18T08:25:59;101424.63;;;-3.79;100.00
14232;BME280;7200;52.194;9.900;2022-12-18T08:28:24;101430.13;;;-3.71;100.00
14232;BME280;7200;52.194;9.900;2022-12-18T08:30:51;101427.53;;;-3.71;100.00
14232;BME280;7200;52.194;9.900;2022-12-18T08:33:17;101420.81;;;-3.66;100.00
14232;BME280;7200;52.194;9.900;2022-12-18T08:35:42;101418.50;;;-3.60;100.00
14232;BME280;7200;52.194;9.900;2022-12-18T08:38:07;101417.78;;;-3.56;100.00
14232;BME280;7200;52.194;9.900;2022-12-18T08:40:33;101418.88;;;-3.49;100.00
14232;BME280;7200;52.194;9.900;2022-12-18T08:42:58;101409.53;;;-3.45;100.00
14232;BME280;7200;52.194;9.900;2022-12-18T08:45:42;101408.09;;;-3.37;100.00
14232;BME280;7200;52.194;9.900;2022-12-18T08:48:07;101396.97;;;-3.36;100.00
14232;BME280;7200;52.194;9.900;2022-12-18T08:50:32;101382.59;;;-3.29;100.00
14232;BME280;7200;52.194;9.900;2022-12-18T08:52:58;101382.81;;;-3.23;100.00
14232;BME280;7200;52.194;9.900;2022-12-18T08:55:23;101371.72;;;-3.21;100.00
14232;BME280;7200;52.194;9.900;2022-12-18T08:57:48;101367.66;;;-3.14;100.00
14232;BME280;7200;52.194;9.900;2022-12-18T09:00:14;101378.22;;;-3.06;100.00
14232;BME280;7200;52.194;9.900;2022-12-18T09:02:40;101376.69;;;-3.01;100.00
14232;BME280;7200;52.194;9.900;2022-12-18T09:05:05;101360.53;;;-2.96;100.00
14232;BME280;7200;52.194;9.900;2022-12-18T09:07:31;101350.34;;;-2.91;100.00
14232;BME280;7200;52.194;9.900;2022-12-18T09:09:56;101354.09;;;-2.81;100.00
14232;BME280;7200;52.194;9.900;2022-12-18T09:12:21;101332.75;;;-2.76;100.00
14232;BME280;7200;52.194;9.900;2022-12-18T09:14:47;101334.78;;;-2.67;100.00
14232;BME280;7200;52.194;9.900;2022-12-18T09:17:12;101317.72;;;-2.62;100.00
14232;BME280;7200;52.194;9.900;2022-12-18T09:19:37;101323.16;;;-2.52;100.00
14232;BME280;7200;52.194;9.900;2022-12-18T09:22:02;101319.31;;;-2.38;100.00
14232;BME280;7200;52.194;9.900;2022-12-18T09:24:28;101302.38;;;-2.28;100.00
14232;BME280;7200;52.194;9.900;2022-12-18T09:26:54;101300.91;;;-2.20;100.00
14232;BME280;7200;52.194;9.900;2022-12-18T09:29:20;101280.34;;;-2.16;100.00
14232;BME280;7200;52.194;9.900;2022-12-18T09:31:46;101272.69;;;-2.12;100.00
14232;BME280;7200;52.194;9.900;2022-12-18T09:34:11;101264.03;;;-2.13;100.00
14232;BME280;7200;52.194;9.900;2022-12-18T09:36:37;101274.63;;;-2.05;100.00
14232;BME280;7200;52.194;9.900;2022-12-18T09:39:03;101270.44;;;-2.00;100.00
14232;BME280;7200;52.194;9.900;2022-12-18T09:42:03;101249.69;;;-2.02;100.00
14232;BME280;7200;52.194;9.900;2022-12-18T09:44:52;101253.28;;;-1.97;100.00
14232;BME280;7200;52.194;9.900;2022-12-18T09:47:23;101251.69;;;-1.93;100.00
14232;BME280;7200;52.194;9.900;2022-12-18T09:50:01;101250.88;;;-1.90;100.00
14232;BME280;7200;52.194;9.900;2022-12-18T09:52:42;101262.22;;;-1.85;100.00
14232;BME280;7200;52.194;9.900;2022-12-18T09:55:36;101276.34;;;-1.74;100.00
14232;BME280;7200;52.194;9.900;2022-12-18T09:58:16;101292.22;;;-1.62;100.00
14232;BME280;7200;52.194;9.900;2022-12-18T10:00:44;101291.50;;;-1.54;100.00
14232;BME280;7200;52.194;9.900;2022-12-18T10:03:11;101296.97;;;-1.44;100.00
14232;BME280;7200;52.194;9.900;2022-12-18T10:10:43;101319.44;;;-1.09;100.00
14232;BME280;7200;52.194;9.900;2022-12-18T10:16:27;101279.13;;;-0.98;100.00
14232;BME280;7200;52.194;9.900;2022-12-18T10:22:35;101262.13;;;-0.87;100.00
14232;BME280;7200;52.194;9.900;2022-12-18T10:24:59;101232.13;;;-0.79;100.00
14232;BME280;7200;52.194;9.900;2022-12-18T10:27:27;101233.84;;;-0.77;100.00
14232;BME280;7200;52.194;9.900;2022-12-18T10:29:53;101211.44;;;-0.77;100.00
14232;BME280;7200;52.194;9.900;2022-12-18T10:32:24;101201.84;;;-0.80;100.00
14232;BME280;7200;52.194;9.900;2022-12-18T10:34:54;101200.19;;;-0.77;100.00
14232;BME280;7200;52.194;9.900;2022-12-18T10:37:21;101204.59;;;-0.73;100.00
14232;BME280;7200;52.194;9.900;2022-12-18T10:40:11;101219.59;;;-0.60;100.00
14232;BME280;7200;52.194;9.900;2022-12-18T10:42:37;101223.13;;;-0.55;100.00
14232;BME280;7200;52.194;9.900;2022-12-18T10:45:13;101223.38;;;-0.44;100.00
14232;BME280;7200;52.194;9.900;2022-12-18T10:47:43;101231.38;;;-0.33;100.00
14232;BME280;7200;52.194;9.900;2022-12-18T10:50:39;101223.78;;;-0.24;100.00
14232;BME280;7200;52.194;9.900;2022-12-18T10:53:05;101242.13;;;-0.15;100.00
14232;BME280;7200;52.194;9.900;2022-12-18T10:55:39;101231.66;;;-0.20;100.00
14232;BME280;7200;52.194;9.900;2022-12-18T10:58:30;101249.22;;;-0.06;100.00
14232;BME280;7200;52.194;9.900;2022-12-18T11:06:05;101212.16;;;0.01;100.00
14232;BME280;7200;52.194;9.900;2022-12-18T11:08:30;101214.84;;;0.06;100.00
14232;BME280;7200;52.194;9.900;2022-12-18T11:10:56;101179.91;;;-0.13;100.00
14232;BME280;7200;52.194;9.900;2022-12-18T11:13:24;101195.66;;;-0.03;100.00
14232;BME280;7200;52.194;9.900;2022-12-18T11:15:51;101203.72;;;0.11;100.00
14232;BME280;7200;52.194;9.900;2022-12-18T11:20:59;101184.94;;;0.25;100.00
14232;BME280;7200;52.194;9.900;2022-12-18T11:23:27;101155.41;;;0.18;100.00
14232;BME280;7200;52.194;9.900;2022-12-18T11:25:58;101151.03;;;0.15;100.00
14232;BME280;7200;52.194;9.900;2022-12-18T11:28:37;101144.19;;;0.21;100.00
14232;BME280;7200;52.194;9.900;2022-12-18T11:31:17;101178.97;;;0.29;100.00
14232;BME280;7200;52.194;9.900;2022-12-18T11:33:57;101164.91;;;0.17;100.00
14232;BME280;7200;52.194;9.900;2022-12-18T11:36:25;101147.50;;;0.10;100.00
14232;BME280;7200;52.194;9.900;2022-12-18T11:38:55;101121.34;;;-0.01;100.00
14232;BME280;7200;52.194;9.900;2022-12-18T11:41:30;101118.72;;;-0.02;100.00
14232;BME280;7200;52.194;9.900;2022-12-18T11:44:44;101117.06;;;0.00;100.00
14232;BME280;7200;52.194;9.900;2022-12-18T11:47:47;101125.00;;;0.11;100.00
14232;BME280;7200;52.194;9.900;2022-12-18T11:50:24;101124.34;;;0.21;100.00
14232;BME280;7200;52.194;9.900;2022-12-18T11:52:50;101119.13;;;0.23;100.00
14232;BME280;7200;52.194;9.900;2022-12-18T11:55:24;101121.75;;;0.23;100.00
14232;BME280;7200;52.194;9.900;2022-12-18T11:58:05;101126.16;;;0.28;100.00
14232;BME280;7200;52.194;9.900;2022-12-18T12:00:38;101111.44;;;0.27;100.00
14232;BME280;7200;52.194;9.900;2022-12-18T12:14:17;101098.13;;;0.07;100.00
14232;BME280;7200;52.194;9.900;2022-12-18T12:16:57;101084.22;;;0.02;100.00
14232;BME280;7200;52.194;9.900;2022-12-18T12:19:36;101064.09;;;-0.13;100.00
14232;BME280;7200;52.194;9.900;2022-12-18T12:22:31;101084.69;;;-0.21;100.00
14232;BME280;7200;52.194;9.900;2022-12-18T12:25:35;101040.47;;;-0.28;100.00
14232;BME280;7200;52.194;9.900;2022-12-18T12:28:23;101055.09;;;-0.30;100.00
14232;BME280;7200;52.194;9.900;2022-12-18T12:31:07;101057.78;;;-0.27;100.00
14232;BME280;7200;52.194;9.900;2022-12-18T12:36:20;101016.75;;;-0.50;100.00
14232;BME280;7200;52.194;9.900;2022-12-18T12:38:51;101017.69;;;-0.46;100.00
14232;BME280;7200;52.194;9.900;2022-12-18T12:41:23;101000.31;;;-0.52;100.00
14232;BME280;7200;52.194;9.900;2022-12-18T12:44:14;101015.84;;;-0.52;100.00
14232;BME280;7200;52.194;9.900;2022-12-18T12:46:41;101028.09;;;-0.45;100.00
14232;BME280;7200;52.194;9.900;2022-12-18T12:49:21;101043.28;;;-0.63;100.00
14232;BME280;7200;52.194;9.900;2022-12-18T12:51:58;101070.22;;;-0.56;100.00
14232;BME280;7200;52.194;9.900;2022-12-18T12:54:26;101058.66;;;-0.72;100.00
14232;BME280;7200;52.194;9.900;2022-12-18T12:57:07;101041.97;;;-0.85;100.00
14232;BME280;7200;52.194;9.900;2022-12-18T12:59:47;101055.69;;;-0.91;100.00
14232;BME280;7200;52.194;9.900;2022-12-18T13:02:22;101061.41;;;-1.07;100.00
14232;BME280;7200;52.194;9.900;2022-12-18T13:13:12;101179.19;;;-1.28;100.00
14232;BME280;7200;52.194;9.900;2022-12-18T13:15:46;101178.19;;;-1.33;100.00
14232;BME280;7200;52.194;9.900;2022-12-18T13:18:16;101187.72;;;-1.30;100.00
14232;BME280;7200;52.194;9.900;2022-12-18T13:20:43;101189.53;;;-1.28;100.00
14232;BME280;7200;52.194;9.900;2022-12-18T13:23:38;101194.00;;;-1.22;100.00
14232;BME280;7200;52.194;9.900;2022-12-18T13:34:18;101247.00;;;-1.06;100.00
14232;BME280;7200;52.194;9.900;2022-12-18T13:36:44;101230.38;;;-1.16;100.00
14232;BME280;7200;52.194;9.900;2022-12-18T13:41:50;101193.09;;;-1.23;100.00
14232;BME280;7200;52.194;9.900;2022-12-18T13:44:35;101168.69;;;-1.32;100.00
14232;BME280;7200;52.194;9.900;2022-12-18T13:47:02;101165.25;;;-1.33;100.00
14232;BME280;7200;52.194;9.900;2022-12-18T13:49:37;101161.63;;;-1.40;100.00
14232;BME280;7200;52.194;9.900;2022-12-18T13:52:16;101153.75;;;-1.44;100.00
14232;BME280;7200;52.194;9.900;2022-12-18T13:54:45;101144.72;;;-1.60;100.00
14232;BME280;7200;52.194;9.900;2022-12-18T13:59:54;101146.28;;;-1.68;100.00
14232;BME280;7200;52.194;9.900;2022-12-18T14:02:27;101141.00;;;-1.71;100.00
14232;BME280;7200;52.194;9.900;2022-12-18T14:04:53;101149.53;;;-1.76;100.00
14232;BME280;7200;52.194;9.900;2022-12-18T14:07:22;101146.75;;;-1.83;100.00
14232;BME280;7200;52.194;9.900;2022-12-18T14:09:55;101146.59;;;-1.89;100.00
14232;BME280;7200;52.194;9.900;2022-12-18T14:12:28;101141.34;;;-1.94;100.00
14232;BME280;7200;52.194;9.900;2022-12-18T14:17:59;101196.19;;;-1.72;100.00
14232;BME280;7200;52.194;9.900;2022-12-18T14:20:28;101164.75;;;-1.88;100.00
14232;BME280;7200;52.194;9.900;2022-12-18T14:22:54;101148.22;;;-1.93;100.00